Time;durP1;ratioP1;P1;durP2;ratioP2;P2;SDS_P1;SDS_P2;PMS_P1;PMS_P2;Temp;Humidity;BMP_temperature;BMP_pressure;BME280_temperature;BME280_humidity;BME280_pressure;Samples;Min_cycle;Max_cycle;Signal;HPM_P1;HPM_P2
2022/03/17 00:00:10;;;;;;;29.25;19.50;;;7.40;99.90;;;6.73;100.00;98094.66;4998388;28;20439;-74
2022/03/17 00:02:38;;;;;;;26.98;19.58;;;7.50;99.90;;;6.82;100.00;98093.63;5001756;28;20045;-74
2022/03/17 00:05:09;;;;;;;28.20;17.25;;;7.50;99.90;;;6.90;100.00;98096.91;5010068;28;20052;-73
2022/03/17 00:07:38;;;;;;;28.80;19.13;;;7.50;99.90;;;6.95;100.00;98084.75;5000467;28;20070;-74
2022/03/17 00:10:08;;;;;;;24.02;15.90;;;7.60;99.90;;;6.93;100.00;98077.94;4994667;28;20155;-74
2022/03/17 00:12:36;;;;;;;21.10;15.40;;;7.60;99.90;;;7.01;100.00;98076.06;4996868;28;20046;-74
2022/03/17 00:15:05;;;;;;;26.60;16.15;;;7.60;99.90;;;6.89;100.00;98079.75;4999488;28;20619;-74
2022/03/17 00:17:32;;;;;;;23.48;16.35;;;7.50;99.90;;;6.99;100.00;98082.97;4998804;28;20128;-74
2022/03/17 00:19:59;;;;;;;23.15;16.45;;;7.50;99.90;;;7.03;100.00;98074.31;4999060;28;20037;-74
2022/03/17 00:22:26;;;;;;;25.92;17.65;;;7.60;99.90;;;7.00;100.00;98066.59;5003909;28;20116;-74
2022/03/17 00:24:54;;;;;;;19.38;13.80;;;7.60;99.90;;;7.09;100.00;98069.00;4997714;28;20065;-74
2022/03/17 00:27:21;;;;;;;19.38;13.60;;;7.60;99.90;;;6.82;100.00;98065.25;5014536;28;20129;-74
2022/03/17 00:29:50;;;;;;;23.80;15.65;;;7.60;99.90;;;6.89;100.00;98072.00;4997779;28;20160;-75
2022/03/17 00:32:17;;;;;;;24.40;16.40;;;7.50;99.90;;;7.00;100.00;98077.81;4997333;28;20125;-74
2022/03/17 00:37:30;;;;;;;21.88;15.00;;;7.60;99.90;;;7.11;100.00;98069.81;4997295;28;20045;-74
2022/03/17 00:39:57;;;;;;;21.90;13.48;;;7.50;99.90;;;6.96;100.00;98073.56;4999635;28;20448;-74
2022/03/17 00:42:24;;;;;;;18.35;12.32;;;7.50;99.90;;;7.03;100.00;98075.16;5001710;28;20156;-74
2022/03/17 00:44:53;;;;;;;25.67;17.88;;;7.50;99.90;;;6.88;100.00;98073.72;5003511;28;20141;-73
2022/03/17 00:47:21;;;;;;;27.25;20.10;;;7.50;99.90;;;6.69;100.00;98091.28;5015573;28;20145;-74
2022/03/17 00:49:49;;;;;;;29.05;19.20;;;7.30;99.90;;;6.66;100.00;98090.47;4996168;28;20050;-74
2022/03/17 00:52:20;;;;;;;29.80;20.40;;;7.40;99.90;;;6.62;100.00;98091.44;5021416;28;20049;-74
2022/03/17 00:54:47;;;;;;;26.17;18.67;;;7.30;99.90;;;6.54;100.00;98095.88;5003658;28;20134;-74
2022/03/17 00:57:14;;;;;;;31.65;21.55;;;7.30;99.90;;;6.57;100.00;98095.81;5001241;28;20105;-74
2022/03/17 00:59:41;;;;;;;33.38;23.13;;;7.30;99.90;;;6.66;100.00;98096.50;5001266;28;20106;-75
2022/03/17 01:02:08;;;;;;;43.53;24.13;;;7.30;99.90;;;6.72;100.00;98094.69;5004093;28;20390;-73
2022/03/17 01:04:36;;;;;;;28.85;20.40;;;7.40;99.90;;;6.73;100.00;98088.63;4999024;28;20053;-74
2022/03/17 01:07:04;;;;;;;23.90;18.35;;;7.40;99.90;;;6.61;100.00;98097.47;5020063;28;20450;-74
2022/03/17 01:09:32;;;;;;;25.30;17.80;;;7.30;99.90;;;6.58;100.00;98087.22;5004591;28;20057;-73
2022/03/17 01:12:00;;;;;;;26.40;18.23;;;7.20;99.90;;;6.51;100.00;98083.03;4999930;28;20046;-74
2022/03/17 01:14:28;;;;;;;25.23;16.33;;;7.20;99.90;;;6.53;100.00;98094.19;5000491;28;20536;-73
2022/03/17 01:16:55;;;;;;;26.48;17.02;;;7.20;99.90;;;6.51;100.00;98098.53;5000696;28;20148;-74
2022/03/17 01:19:22;;;;;;;20.73;14.63;;;7.20;99.90;;;6.58;100.00;98100.09;5003396;28;20045;-73
2022/03/17 01:21:50;;;;;;;32.05;20.30;;;7.20;99.90;;;6.44;100.00;98103.78;5000667;28;20512;-73
2022/03/17 01:24:18;;;;;;;32.55;24.42;;;7.10;99.90;;;6.47;100.00;98111.44;4999879;28;20078;-74
2022/03/17 01:26:45;;;;;;;38.35;24.58;;;7.10;99.90;;;6.48;100.00;98109.75;5001576;28;20477;-73
2022/03/17 01:29:16;;;;;;;38.15;26.40;;;7.20;99.90;;;6.48;100.00;98107.16;5002580;28;20054;-73
2022/03/17 01:31:45;;;;;;;44.90;27.83;;;7.20;99.90;;;6.51;100.00;98112.25;5002660;28;20061;-73
2022/03/17 01:34:12;;;;;;;40.17;27.92;;;7.20;99.90;;;6.60;100.00;98122.41;4987517;28;20046;-73
2022/03/17 01:36:40;;;;;;;38.35;27.52;;;7.30;99.90;;;6.68;100.00;98122.25;5003496;28;20081;-73
2022/03/17 01:39:07;;;;;;;45.83;28.75;;;7.30;99.90;;;6.66;100.00;98119.72;5006980;28;20068;-73
2022/03/17 01:41:34;;;;;;;36.30;26.33;;;7.40;99.90;;;6.57;100.00;98114.75;5005269;28;20540;-74
2022/03/17 01:44:02;;;;;;;35.95;26.55;;;7.40;99.90;;;6.59;100.00;98107.81;5005650;28;20123;-73
2022/03/17 01:46:29;;;;;;;39.08;25.55;;;7.40;99.90;;;6.54;100.00;98116.50;5006759;28;20137;-73
2022/03/17 01:48:57;;;;;;;33.35;22.98;;;7.30;99.90;;;6.52;100.00;98116.53;5005550;28;20077;-74
2022/03/17 01:51:24;;;;;;;32.40;21.23;;;7.30;99.90;;;6.43;100.00;98114.97;5006273;28;20434;-74
2022/03/17 01:53:51;;;;;;;35.20;24.52;;;7.20;99.90;;;6.34;100.00;98120.31;5001831;28;20092;-74
2022/03/17 01:56:18;;;;;;;41.33;26.45;;;7.10;99.90;;;6.35;100.00;98128.88;5003921;28;20130;-74
2022/03/17 01:58:46;;;;;;;42.70;28.52;;;7.10;99.90;;;6.42;100.00;98122.75;5014176;28;20045;-73
2022/03/17 02:01:13;;;;;;;43.70;29.75;;;7.10;99.90;;;6.44;100.00;98124.41;4987892;28;20059;-73
2022/03/17 02:03:43;;;;;;;44.92;30.67;;;7.20;99.90;;;6.48;100.00;98127.78;5004537;28;20054;-74
2022/03/17 02:06:10;;;;;;;39.58;29.40;;;7.20;99.90;;;6.55;100.00;98131.97;5006171;28;20138;-74
2022/03/17 02:08:38;;;;;;;46.05;29.63;;;7.30;99.90;;;6.55;100.00;98131.13;5002521;28;20048;-73
2022/03/17 02:13:51;;;;;;;39.30;27.45;;;7.30;99.90;;;6.50;100.00;98128.63;5007182;28;20077;-74
2022/03/17 02:16:18;;;;;;;37.42;25.35;;;7.30;99.90;;;6.45;100.00;98126.13;5004987;28;20052;-73
2022/03/17 02:18:46;;;;;;;40.72;25.23;;;7.20;99.90;;;6.51;100.00;98126.88;5004207;28;20116;-73
2022/03/17 02:21:14;;;;;;;39.75;28.35;;;7.20;99.90;;;6.55;100.00;98121.66;5005575;28;20096;-74
2022/03/17 02:26:30;;;;;;;45.78;28.63;;;7.30;99.90;;;6.67;100.00;98126.56;5003984;28;20049;-74
2022/03/17 02:28:59;;;;;;;38.60;27.30;;;7.30;99.90;;;6.70;100.00;98123.09;5005169;28;20080;-74
2022/03/17 02:31:26;;;;;;;43.65;28.42;;;7.40;99.90;;;6.71;100.00;98119.66;5005813;28;20056;-73
2022/03/17 02:33:53;;;;;;;36.67;25.95;;;7.40;99.90;;;6.69;100.00;98123.97;5002332;28;20085;-74
2022/03/17 02:36:20;;;;;;;33.00;23.95;;;7.40;99.90;;;6.82;100.00;98124.59;5021288;28;20056;-74
2022/03/17 02:38:47;;;;;;;37.92;25.77;;;7.40;99.90;;;6.94;100.00;98123.53;5001589;28;20137;-73
2022/03/17 02:41:21;;;;;;;30.20;22.48;;;7.50;99.90;;;7.09;100.00;98129.25;5018157;28;20046;-73
2022/03/17 02:43:53;;;;;;;35.55;25.33;;;7.50;99.90;;;7.12;100.00;98120.59;5000994;28;20492;-73
2022/03/17 02:46:21;;;;;;;32.22;23.52;;;7.50;99.90;;;6.97;100.00;98116.56;5005697;28;20228;-74
2022/03/17 02:48:52;;;;;;;37.50;26.08;;;7.50;99.90;;;6.94;100.00;98121.78;5007174;28;20050;-73
2022/03/17 02:51:19;;;;;;;38.15;25.63;;;7.50;99.90;;;6.83;100.00;98119.41;5004736;28;20140;-73
2022/03/17 02:53:46;;;;;;;29.80;22.50;;;7.40;99.90;;;6.89;100.00;98121.03;5005974;28;20052;-74
2022/03/17 02:56:13;;;;;;;37.72;26.50;;;7.40;99.90;;;6.85;100.00;98119.38;5001578;28;20137;-74
2022/03/17 02:58:41;;;;;;;30.45;23.48;;;7.40;99.90;;;6.87;100.00;98121.06;5006960;28;20422;-73
2022/03/17 03:01:07;;;;;;;35.55;25.55;;;7.40;99.90;;;6.83;100.00;98121.13;5005510;28;20132;-74
2022/03/17 03:03:35;;;;;;;38.10;25.95;;;7.40;99.90;;;6.87;100.00;98128.78;5003262;28;20042;-74
2022/03/17 03:06:03;;;;;;;34.65;24.50;;;7.40;99.90;;;6.83;100.00;98128.88;5003309;28;20046;-73
2022/03/17 03:08:30;;;;;;;30.02;21.98;;;7.50;99.90;;;6.79;100.00;98122.06;5019142;28;20053;-73
2022/03/17 03:10:57;;;;;;;27.40;19.33;;;7.50;99.90;;;6.95;100.00;98120.91;5001114;28;20194;-74
2022/03/17 03:13:24;;;;;;;25.83;18.63;;;7.40;99.90;;;6.96;100.00;98124.34;5003545;28;20042;-73
2022/03/17 03:15:51;;;;;;;27.02;18.55;;;7.40;99.90;;;6.97;100.00;98124.31;5001383;28;20077;-73
2022/03/17 03:18:19;;;;;;;27.10;18.90;;;7.50;99.90;;;7.01;100.00;98119.94;5005251;28;20133;-73
2022/03/17 03:20:46;;;;;;;26.83;19.45;;;7.50;99.90;;;7.23;100.00;98125.50;5000779;28;20057;-73
2022/03/17 03:23:13;;;;;;;30.60;22.88;;;7.50;99.90;;;6.92;100.00;98123.53;5003556;28;20136;-73
2022/03/17 03:25:40;;;;;;;29.17;21.45;;;7.50;99.90;;;6.87;100.00;98122.78;5003746;28;20089;-74
2022/03/17 03:28:11;;;;;;;38.72;23.77;;;7.50;99.90;;;6.67;100.00;98129.16;5003565;28;20133;-73
2022/03/17 03:30:38;;;;;;;30.02;22.75;;;7.50;99.90;;;6.43;100.00;98145.94;5002177;28;20064;-73
2022/03/17 03:33:07;;;;;;;36.72;25.35;;;7.50;99.90;;;6.57;100.00;98149.97;5003335;28;20424;-73
2022/03/17 03:38:22;;;;;;;39.47;24.92;;;7.40;99.90;;;6.63;100.00;98130.09;5003164;28;20084;-73
2022/03/17 03:40:49;;;;;;;35.45;26.70;;;7.40;99.90;;;6.49;100.00;98142.38;4998707;28;20413;-73
2022/03/17 03:43:16;;;;;;;46.28;29.13;;;7.50;99.90;;;6.34;100.00;98143.50;4996967;28;20141;-73
2022/03/17 03:45:43;;;;;;;39.70;25.50;;;7.50;99.90;;;6.67;100.00;98160.13;5016019;28;20474;-73
2022/03/17 03:48:10;;;;;;;37.03;26.50;;;7.50;99.90;;;6.76;100.00;98166.84;4986584;28;20084;-73
2022/03/17 03:50:37;;;;;;;44.13;30.33;;;7.50;99.90;;;6.51;100.00;98165.56;5007075;28;20216;-73
2022/03/17 03:53:05;;;;;;;46.10;32.03;;;7.30;99.90;;;6.32;100.00;98155.56;5003277;28;20080;-74
2022/03/17 03:55:32;;;;;;;46.00;31.17;;;7.20;99.90;;;6.37;100.00;98152.91;5003300;28;20211;-74
2022/03/17 03:58:00;;;;;;;38.95;28.50;;;7.20;99.90;;;6.60;100.00;98162.84;5001974;28;20125;-73
2022/03/17 04:00:36;;;;;;;39.15;27.70;;;7.30;99.90;;;6.74;100.00;98153.13;5004051;28;20105;-73
2022/03/17 04:03:04;;;;;;;38.30;27.98;;;7.40;99.90;;;6.78;100.00;98170.25;5004029;28;20061;-73
2022/03/17 04:07:59;;;;;;;37.75;25.83;;;7.50;99.90;;;7.05;100.00;98163.72;5004610;28;20053;-73
2022/03/17 04:10:27;;;;;;;33.67;25.30;;;7.60;99.90;;;7.13;100.00;98161.84;5001232;28;20192;-74
2022/03/17 04:12:55;;;;;;;37.22;27.27;;;7.60;99.90;;;7.04;100.00;98158.59;5003581;28;20124;-74
2022/03/17 04:15:22;;;;;;;35.97;26.50;;;7.60;99.90;;;7.14;100.00;98162.72;5000613;28;20066;-73
2022/03/17 04:17:50;;;;;;;38.17;26.52;;;7.60;99.90;;;7.11;100.00;98175.66;5003844;28;20065;-73
2022/03/17 04:20:18;;;;;;;49.75;32.40;;;7.50;99.90;;;6.60;100.00;98163.69;5006378;28;20080;-73
2022/03/17 04:22:45;;;;;;;42.47;29.58;;;7.30;99.90;;;6.74;100.00;98165.19;5006784;28;20049;-74
2022/03/17 04:25:12;;;;;;;44.58;30.35;;;7.40;99.90;;;6.96;100.00;98173.38;5005979;28;20056;-74
2022/03/17 04:27:40;;;;;;;46.13;28.42;;;7.40;99.90;;;7.12;100.00;98177.38;4998844;28;20546;-73
2022/03/17 04:30:08;;;;;;;42.13;27.38;;;7.50;99.90;;;7.15;100.00;98186.78;5000766;28;20111;-73
2022/03/17 04:32:35;;;;;;;36.55;25.15;;;7.50;99.90;;;7.25;100.00;98175.38;5001465;28;20544;-73
2022/03/17 04:35:03;;;;;;;32.97;25.30;;;7.60;99.90;;;6.94;100.00;98177.72;5001976;28;20572;-73
2022/03/17 04:37:30;;;;;;;44.42;30.15;;;7.60;99.90;;;6.81;100.00;98179.66;5011099;28;20065;-73
2022/03/17 04:39:58;;;;;;;35.70;25.80;;;7.50;99.90;;;6.76;100.00;98192.66;5003233;28;20137;-73
2022/03/17 04:42:25;;;;;;;40.75;28.85;;;7.50;99.90;;;6.82;100.00;98194.25;5010733;28;20053;-73
2022/03/17 04:44:52;;;;;;;51.17;34.38;;;7.50;99.90;;;6.57;100.00;98197.28;5003993;28;20102;-74
2022/03/17 04:47:21;;;;;;;52.53;36.33;;;7.30;99.90;;;6.64;100.00;98211.78;5003631;28;20061;-73
2022/03/17 04:49:49;;;;;;;50.28;36.70;;;7.40;99.90;;;6.70;100.00;98219.41;5005388;28;20085;-74
2022/03/17 04:55:01;;;;;;;51.20;36.45;;;7.40;99.90;;;6.97;100.00;98221.53;5002365;28;20505;-74
2022/03/17 04:57:28;;;;;;;45.90;34.35;;;7.50;99.90;;;7.13;100.00;98228.97;5006327;28;20141;-73
2022/03/17 04:59:55;;;;;;;39.00;28.95;;;7.60;99.90;;;6.89;100.00;98230.25;5001385;28;20073;-74
2022/03/17 05:02:22;;;;;;;42.67;29.85;;;7.60;99.90;;;7.05;100.00;98238.59;5003920;28;20101;-73
2022/03/17 05:04:51;;;;;;;49.25;33.60;;;7.50;99.90;;;6.83;100.00;98238.09;5003416;28;20129;-73
2022/03/17 05:07:18;;;;;;;41.25;30.13;;;7.40;99.90;;;7.09;100.00;98244.53;5003725;28;20112;-74
2022/03/17 05:09:45;;;;;;;39.28;28.58;;;7.50;99.90;;;6.98;100.00;98247.31;5019489;28;20361;-74
2022/03/17 05:12:12;;;;;;;49.33;35.03;;;7.40;99.90;;;6.69;100.00;98234.91;5004791;28;20140;-73
2022/03/17 05:14:39;;;;;;;41.55;30.55;;;7.30;99.90;;;6.81;100.00;98247.59;5008808;28;20041;-73
2022/03/17 05:17:06;;;;;;;50.78;35.22;;;7.30;99.90;;;6.74;100.00;98248.56;5006834;28;20081;-74
2022/03/17 05:19:34;;;;;;;44.00;31.77;;;7.30;99.90;;;6.87;100.00;98256.97;5001779;28;20117;-73
2022/03/17 05:22:00;;;;;;;42.28;29.20;;;7.40;99.90;;;6.96;100.00;98259.41;5004363;28;20224;-74
2022/03/17 05:24:28;;;;;;;46.90;31.92;;;7.40;99.90;;;6.81;100.00;98249.31;4998054;28;20177;-73
2022/03/17 05:26:57;;;;;;;47.97;33.80;;;7.40;99.90;;;6.72;100.00;98255.50;5001451;28;20071;-73
2022/03/17 05:29:24;;;;;;;47.25;32.65;;;7.30;99.90;;;6.69;100.00;98245.22;5004854;28;20108;-74
2022/03/17 05:31:51;;;;;;;46.78;33.22;;;7.30;99.90;;;6.82;100.00;98251.91;5003112;28;20042;-73
2022/03/17 05:34:18;;;;;;;37.15;27.85;;;7.40;99.90;;;6.83;100.00;98260.47;4999650;28;20129;-74
2022/03/17 05:36:45;;;;;;;42.40;29.73;;;7.40;99.90;;;7.03;100.00;98268.75;5004422;28;20076;-73
2022/03/17 05:39:12;;;;;;;46.80;30.20;;;7.40;99.90;;;6.90;100.00;98269.81;4983454;28;20830;-74
2022/03/17 05:41:39;;;;;;;46.42;33.17;;;7.40;99.90;;;6.98;100.00;98278.28;5000234;28;20074;-74
2022/03/17 05:44:07;;;;;;;51.88;37.58;;;7.40;99.90;;;6.82;100.00;98275.13;5003169;28;20519;-74
2022/03/17 05:46:34;;;;;;;55.80;36.97;;;7.40;99.90;;;6.83;100.00;98274.22;5004614;28;20463;-73
2022/03/17 05:49:01;;;;;;;43.92;31.30;;;7.40;99.90;;;6.96;100.00;98282.63;5003479;28;20360;-73
2022/03/17 05:51:28;;;;;;;45.67;30.25;;;7.50;99.90;;;6.80;100.00;98292.34;5004059;28;20502;-74
2022/03/17 05:53:55;;;;;;;50.70;35.47;;;7.50;99.90;;;6.67;100.00;98289.09;4998850;28;20508;-74
2022/03/17 05:56:22;;;;;;;46.97;35.47;;;7.40;99.90;;;6.67;100.00;98296.84;5003708;28;20049;-73
2022/03/17 05:58:49;;;;;;;51.90;37.33;;;7.40;99.90;;;6.69;100.00;98299.41;4997916;28;20204;-73
2022/03/17 06:01:17;;;;;;;57.65;36.33;;;7.30;99.90;;;6.70;100.00;98308.84;5002919;28;20050;-73
2022/03/17 06:03:45;;;;;;;40.42;28.80;;;7.40;99.90;;;6.78;100.00;98304.41;5002281;28;20049;-73
2022/03/17 06:06:12;;;;;;;48.20;33.67;;;7.40;99.90;;;6.77;100.00;98307.84;5000009;28;20081;-74
2022/03/17 06:08:38;;;;;;;38.53;28.02;;;7.30;99.90;;;6.95;100.00;98313.63;5016742;28;20125;-73
2022/03/17 06:11:07;;;;;;;36.35;26.90;;;7.40;99.90;;;7.01;100.00;98313.53;4997803;28;20353;-74
2022/03/17 06:13:35;;;;;;;39.42;28.40;;;7.50;99.90;;;6.98;100.00;98309.28;5001211;28;20462;-74
2022/03/17 06:16:05;;;;;;;46.35;32.05;;;7.50;99.90;;;6.92;100.00;98311.94;5006596;28;20101;-73
2022/03/17 06:18:32;;;;;;;38.05;26.45;;;7.50;99.90;;;6.93;100.00;98312.78;5005936;28;20779;-73
2022/03/17 06:20:59;;;;;;;47.33;31.23;;;7.50;99.90;;;6.79;100.00;98318.16;5003174;28;20095;-73
2022/03/17 06:23:26;;;;;;;42.65;28.40;;;7.40;99.90;;;6.83;100.00;98320.69;5003794;28;20125;-74
2022/03/17 06:25:53;;;;;;;46.67;31.58;;;7.50;99.90;;;7.05;100.00;98318.63;5018892;28;20133;-73
2022/03/17 06:28:21;;;;;;;37.90;28.05;;;7.50;99.90;;;7.22;100.00;98309.72;5003420;28;20054;-73
2022/03/17 06:30:48;;;;;;;40.05;28.42;;;7.60;99.90;;;6.98;100.00;98313.56;4991225;28;20485;-73
2022/03/17 06:33:16;;;;;;;37.17;26.92;;;7.60;99.90;;;7.07;100.00;98309.13;5002109;28;20050;-73
2022/03/17 06:35:44;;;;;;;38.85;28.35;;;7.60;99.90;;;7.13;100.00;98318.47;5004576;28;20169;-74
2022/03/17 06:38:10;;;;;;;43.28;29.23;;;7.60;99.90;;;7.04;100.00;98318.63;5002979;28;20135;-74
2022/03/17 06:40:37;;;;;;;48.65;33.22;;;7.60;99.90;;;6.83;100.00;98323.25;5005141;28;20508;-74
2022/03/17 06:43:05;;;;;;;52.20;36.45;;;7.60;99.90;;;6.95;100.00;98329.94;5001734;28;20057;-73
2022/03/17 06:45:33;;;;;;;46.97;31.73;;;7.70;99.90;;;7.20;100.00;98339.88;5005248;28;20073;-73
2022/03/17 06:48:00;;;;;;;41.40;29.13;;;7.70;99.90;;;7.30;100.00;98347.44;4999442;28;20539;-73
2022/03/17 06:50:27;;;;;;;51.33;35.55;;;7.80;99.90;;;7.19;100.00;98349.38;5007640;28;20594;-74
2022/03/17 06:52:55;;;;;;;50.95;35.80;;;7.80;99.90;;;7.07;100.00;98349.53;4986552;28;20124;-73
2022/03/17 06:55:22;;;;;;;55.17;36.95;;;7.80;99.90;;;7.11;100.00;98354.63;5005904;28;20484;-73
2022/03/17 06:57:49;;;;;;;48.45;31.00;;;7.80;99.90;;;7.17;100.00;98360.59;5017187;28;20572;-73
2022/03/17 07:00:19;;;;;;;49.25;37.47;;;7.90;99.90;;;7.31;100.00;98374.97;4999144;28;20092;-73
2022/03/17 07:02:46;;;;;;;55.22;38.65;;;7.90;99.90;;;7.15;100.00;98373.53;5001451;28;20153;-73
2022/03/17 07:05:14;;;;;;;60.25;40.97;;;7.90;99.90;;;7.11;100.00;98379.59;5003015;28;20054;-74
2022/03/17 07:07:43;;;;;;;54.00;38.08;;;7.90;99.90;;;7.21;100.00;98380.34;4999725;28;20473;-74
2022/03/17 07:10:12;;;;;;;56.45;39.45;;;7.90;99.90;;;7.42;100.00;98385.13;5003702;28;20046;-73
2022/03/17 07:12:41;;;;;;;49.58;35.97;;;8.10;99.90;;;7.67;100.00;98384.69;5016051;28;20145;-73
2022/03/17 07:15:12;;;;;;;52.90;39.03;;;8.20;99.90;;;7.63;100.00;98383.06;5001490;28;20054;-73
2022/03/17 07:17:40;;;;;;;55.83;39.05;;;8.30;99.90;;;7.80;100.00;98382.72;5000291;28;20157;-74
2022/03/17 07:20:19;;;;;;;54.55;41.50;;;8.40;99.90;;;7.70;100.00;98380.31;5004115;28;20049;-73
2022/03/17 07:22:49;;;;;;;47.10;34.10;;;8.40;99.90;;;7.95;100.00;98385.03;5005721;28;20465;-73
2022/03/17 07:25:19;;;;;;;51.25;38.10;;;8.50;99.90;;;8.13;100.00;98397.59;5002362;28;20125;-74
2022/03/17 07:27:48;;;;;;;42.63;31.52;;;8.70;99.90;;;8.16;100.00;98399.28;5019154;28;20141;-73
2022/03/17 07:30:18;;;;;;;42.28;31.27;;;8.70;99.90;;;8.34;100.00;98401.50;5008362;28;20515;-74
2022/03/17 07:32:59;;;;;;;49.58;35.90;;;8.80;99.90;;;8.27;100.00;98405.09;5004281;28;20047;-74
2022/03/17 07:35:27;;;;;;;50.72;38.33;;;8.80;99.90;;;8.10;100.00;98399.41;5020972;28;20137;-74
2022/03/17 07:37:54;;;;;;;53.38;40.38;;;8.80;99.90;;;8.06;100.00;98410.69;4996873;28;20086;-73
2022/03/17 07:40:22;;;;;;;56.45;39.20;;;8.90;99.90;;;7.97;100.00;98407.38;5000500;28;20054;-73
2022/03/17 07:42:49;;;;;;;56.47;40.78;;;8.80;99.90;;;7.96;100.00;98415.19;5015541;28;20057;-72
2022/03/17 07:45:16;;;;;;;53.70;41.40;;;8.90;99.90;;;8.11;100.00;98414.03;4995123;28;20112;-74
2022/03/17 07:47:48;;;;;;;50.50;36.83;;;8.90;99.90;;;8.29;100.00;98423.16;5003609;28;20136;-72
2022/03/17 07:50:16;;;;;;;48.05;36.50;;;9.00;99.90;;;8.30;100.00;98415.38;4999185;28;20416;-73
2022/03/17 07:52:44;;;;;;;52.40;39.03;;;9.10;99.90;;;8.33;100.00;98407.56;4999174;28;20483;-72
2022/03/17 07:55:11;;;;;;;50.88;38.30;;;9.10;99.90;;;8.40;100.00;98413.50;5003079;28;20416;-73
2022/03/17 07:57:39;;;;;;;48.83;37.05;;;9.20;99.90;;;8.55;100.00;98414.91;5001701;28;20052;-72
2022/03/17 08:00:11;;;;;;;46.58;36.75;;;9.20;99.90;;;8.61;100.00;98411.34;4999854;28;20050;-72
2022/03/17 08:02:40;;;;;;;44.53;34.30;;;9.30;99.90;;;8.73;100.00;98408.47;4998006;28;20053;-73
2022/03/17 08:05:13;;;;;;;43.78;34.55;;;9.40;99.90;;;8.89;100.00;98390.88;5001622;28;20050;-72
2022/03/17 08:07:41;;;;;;;40.47;30.90;;;9.40;99.90;;;9.21;100.00;98392.69;5016561;28;20425;-73
2022/03/17 08:10:09;;;;;;;41.42;31.55;;;9.60;99.90;;;9.29;100.00;98395.97;5006073;28;20543;-73
2022/03/17 08:12:36;;;;;;;41.03;32.15;;;9.70;99.90;;;9.50;100.00;98394.59;4998743;28;20058;-72
2022/03/17 08:15:05;;;;;;;39.83;31.23;;;9.90;99.90;;;9.54;100.00;98397.97;5002518;28;20131;-73
2022/03/17 08:17:33;;;;;;;41.50;31.58;;;9.90;99.90;;;9.52;100.00;98397.16;5002751;28;20038;-73
2022/03/17 08:20:02;;;;;;;41.13;32.85;;;10.00;99.90;;;9.45;100.00;98406.81;4998504;28;20042;-72
2022/03/17 08:22:28;;;;;;;43.03;34.35;;;10.10;99.90;;;9.28;100.00;98412.38;5001228;28;20050;-73
2022/03/17 08:24:55;;;;;;;45.17;35.55;;;10.00;99.90;;;9.09;100.00;98411.97;5002555;28;20121;-73
2022/03/17 08:27:22;;;;;;;48.10;36.83;;;9.90;99.90;;;9.03;100.00;98403.50;5002866;28;20050;-73
2022/03/17 08:29:49;;;;;;;42.63;32.13;;;9.90;99.90;;;8.99;100.00;98415.69;5003795;28;20076;-72
2022/03/17 08:32:17;;;;;;;46.67;35.35;;;;;;;8.96;100.00;98415.72;5002148;28;20160;-73
2022/03/17 08:34:44;;;;;;;45.88;35.97;;;9.90;99.90;;;8.66;100.00;98427.63;4998021;28;20124;-73
2022/03/17 08:37:11;;;;;;;45.63;35.05;;;9.80;99.90;;;8.83;100.00;98435.88;4998685;28;20117;-73
2022/03/17 08:39:38;;;;;;;49.63;36.63;;;9.80;99.90;;;8.77;100.00;98426.50;4998770;28;20054;-73
2022/03/17 08:42:06;;;;;;;43.53;33.83;;;9.80;99.90;;;8.77;100.00;98426.50;5019837;28;20456;-73
2022/03/17 08:44:33;;;;;;;44.00;33.55;;;9.80;99.90;;;8.96;100.00;98429.56;5000462;28;20173;-73
2022/03/17 08:49:46;;;;;;;40.20;32.13;;;9.90;99.90;;;9.25;100.00;98445.31;5001641;28;20073;-73
2022/03/17 08:52:13;;;;;;;41.55;31.67;;;9.90;99.90;;;9.27;100.00;98453.91;5000752;28;20133;-73
2022/03/17 08:54:42;;;;;;;44.95;35.97;;;10.00;99.90;;;9.22;100.00;98448.81;5013897;28;20050;-73
2022/03/17 08:57:11;;;;;;;44.63;34.05;;;10.00;99.90;;;9.11;100.00;98461.16;5002961;28;20515;-73
2022/03/17 08:59:38;;;;;;;43.10;31.77;;;10.00;99.90;;;9.30;100.00;98466.75;4997547;28;20142;-73
2022/03/17 09:02:12;;;;;;;41.13;30.63;;;10.00;99.90;;;9.50;100.00;98467.16;4997171;28;20518;-73
2022/03/17 09:04:40;;;;;;;40.70;31.20;;;10.10;99.90;;;9.63;100.00;98481.53;4999869;28;20099;-73
2022/03/17 09:07:07;;;;;;;43.22;32.38;;;10.10;99.90;;;9.66;100.00;98475.41;5000111;28;20049;-73
2022/03/17 09:09:37;;;;;;;44.53;33.58;;;10.20;99.90;;;9.40;100.00;98481.22;4998582;28;20060;-73
2022/03/17 09:12:07;;;;;;;43.42;34.78;;;10.10;99.90;;;9.12;100.00;98483.56;4985077;28;20068;-73
2022/03/17 09:14:37;;;;;;;41.35;34.05;;;10.00;99.90;;;8.99;100.00;98498.53;5001357;28;20053;-73
2022/03/17 09:17:04;;;;;;;43.42;34.28;;;10.00;99.90;;;8.95;100.00;98489.97;5000056;28;20526;-73
2022/03/17 09:19:32;;;;;;;41.80;34.03;;;9.90;99.90;;;9.08;100.00;98487.97;5000432;28;20129;-72
2022/03/17 09:22:00;;;;;;;45.15;33.97;;;9.90;99.90;;;9.09;100.00;98502.63;4999043;28;20447;-73
2022/03/17 09:24:30;;;;;;;43.67;35.08;;;9.90;99.90;;;9.07;100.00;98506.13;4997622;28;20229;-72
2022/03/17 09:27:00;;;;;;;43.63;33.50;;;9.90;99.90;;;8.98;100.00;98513.22;5002923;28;20083;-72
2022/03/17 09:29:28;;;;;;;42.75;33.47;;;9.90;99.90;;;8.85;100.00;98513.50;5000161;28;20411;-72
2022/03/17 09:31:58;;;;;;;43.75;33.55;;;9.90;99.90;;;9.16;100.00;98511.97;5014374;28;20064;-72
2022/03/17 09:34:27;;;;;;;43.28;34.83;;;9.90;99.90;;;8.98;100.00;98523.56;4999838;28;20751;-72
2022/03/17 09:36:56;;;;;;;46.22;35.78;;;9.90;99.90;;;8.85;100.00;98527.31;5002942;28;20133;-72
2022/03/17 09:42:08;;;;;;;45.10;33.80;;;9.70;99.90;;;9.05;100.00;98532.06;5002749;28;20108;-73
2022/03/17 09:44:36;;;;;;;46.60;34.60;;;9.70;99.90;;;8.93;100.00;98534.91;4999208;28;20050;-72
2022/03/17 09:47:09;;;;;;;41.97;32.70;;;9.70;99.90;;;8.99;100.00;98535.66;5000721;28;20136;-72
2022/03/17 09:49:37;;;;;;;43.10;33.00;;;9.80;99.90;;;9.06;100.00;98544.13;5016212;28;20569;-72
2022/03/17 09:52:11;;;;;;;40.28;31.70;;;9.80;99.90;;;9.30;100.00;98539.31;5007050;28;20058;-73
2022/03/17 09:54:38;;;;;;;42.00;33.30;;;9.80;99.90;;;9.14;100.00;98541.38;5000422;28;20052;-72
2022/03/17 09:57:05;;;;;;;43.10;32.40;;;9.80;99.90;;;9.27;100.00;98544.56;5007186;28;20073;-72
2022/03/17 09:59:33;;;;;;;47.30;31.08;;;9.80;99.90;;;9.35;100.00;98548.69;5002211;28;20337;-72
2022/03/17 10:02:01;;;;;;;46.30;33.25;;;9.90;99.90;;;9.37;100.00;98549.53;5003796;28;20504;-72
2022/03/17 10:04:35;;;;;;;45.25;35.08;;;9.90;99.90;;;9.03;100.00;98554.53;5007677;28;20423;-72
2022/03/17 10:07:02;;;;;;;44.53;34.47;;;9.90;99.90;;;9.14;100.00;98560.34;5002931;28;20146;-72
2022/03/17 10:09:30;;;;;;;49.50;34.25;;;9.90;99.90;;;9.10;100.00;98569.09;5000569;28;20081;-72
2022/03/17 10:12:08;;;;;;;46.95;36.75;;;9.80;99.90;;;9.13;100.00;98566.44;5004097;28;20129;-72
2022/03/17 10:14:36;;;;;;;49.15;37.22;;;9.80;99.90;;;8.84;100.00;98582.56;5003695;28;20133;-72
2022/03/17 10:17:06;;;;;;;45.20;34.38;;;9.80;99.90;;;8.88;100.00;98589.38;4998228;28;20488;-72
2022/03/17 10:19:34;;;;;;;51.13;38.08;;;9.60;99.90;;;8.78;100.00;98595.59;4999030;28;20049;-72
2022/03/17 10:22:14;;;;;;;49.55;38.22;;;9.60;99.90;;;8.77;100.00;98599.09;5005592;28;20478;-73
2022/03/17 10:24:52;;;;;;;48.63;36.97;;;9.60;99.90;;;8.91;100.00;98601.41;5002495;28;20459;-72
2022/03/17 10:27:45;;;;;;;48.10;35.58;;;9.60;99.90;;;8.95;100.00;98605.66;5003015;28;20041;-73
2022/03/17 10:30:35;;;;;;;57.92;40.75;;;9.70;99.90;;;8.85;100.00;98611.88;5001336;28;20455;-72
2022/03/17 10:33:15;;;;;;;47.97;35.60;;;9.60;99.90;;;8.77;100.00;98617.22;5001916;28;20042;-73
2022/03/17 10:35:46;;;;;;;46.20;34.65;;;9.60;99.90;;;8.82;100.00;98612.78;5001637;28;20587;-73
2022/03/17 10:38:27;;;;;;;49.90;36.17;;;9.50;99.90;;;9.03;100.00;98621.88;5003974;28;20052;-72